createdAt,value
2023-03-22T00:01:49.078Z,99.90
2023-03-22T00:04:22.548Z,99.90
2023-03-22T00:06:56.035Z,99.90
2023-03-22T00:09:29.558Z,99.90
2023-03-22T00:12:04.961Z,99.90
2023-03-22T00:14:38.564Z,99.90
2023-03-22T00:17:12.035Z,99.90
2023-03-22T00:19:46.572Z,99.90
2023-03-22T00:22:20.082Z,99.90
2023-03-22T00:24:53.546Z,99.90
2023-03-22T00:27:28.476Z,99.90
2023-03-22T00:30:01.967Z,99.90
2023-03-22T00:32:36.587Z,99.90
2023-03-22T00:35:11.106Z,99.90
2023-03-22T00:37:44.586Z,99.90
2023-03-22T00:40:18.497Z,99.90
2023-03-22T00:42:53.415Z,99.90
2023-03-22T00:45:27.052Z,99.90
2023-03-22T00:48:00.612Z,99.90
2023-03-22T00:50:34.163Z,99.90
2023-03-22T00:53:07.688Z,99.90
2023-03-22T00:55:41.344Z,99.90
2023-03-22T00:58:16.307Z,99.90
2023-03-22T01:00:50.419Z,99.90
2023-03-22T01:03:24.769Z,99.90
2023-03-22T01:05:58.966Z,99.90
2023-03-22T01:08:33.605Z,99.90
2023-03-22T01:11:08.111Z,99.90
2023-03-22T01:13:43.024Z,99.90
2023-03-22T01:16:17.671Z,99.90
2023-03-22T01:18:51.429Z,99.90
2023-03-22T01:21:24.946Z,99.90
2023-03-22T01:23:58.691Z,99.90
2023-03-22T01:26:32.213Z,99.90
2023-03-22T01:29:07.148Z,99.90
2023-03-22T01:31:40.653Z,99.90
2023-03-22T01:34:14.142Z,99.90
2023-03-22T01:36:47.761Z,99.90
2023-03-22T01:39:21.464Z,99.90
2023-03-22T01:41:58.244Z,99.90
2023-03-22T01:44:33.816Z,99.90
2023-03-22T01:47:11.464Z,99.90
2023-03-22T01:49:45.060Z,99.90
2023-03-22T01:52:18.704Z,99.90
2023-03-22T01:54:57.094Z,99.90
2023-03-22T01:57:44.066Z,99.90
2023-03-22T02:00:24.294Z,99.90
2023-03-22T02:03:29.934Z,99.90
2023-03-22T02:06:03.495Z,99.90
2023-03-22T02:08:37.521Z,99.90
2023-03-22T02:11:20.777Z,99.90
2023-03-22T02:14:09.206Z,99.90
2023-03-22T02:17:18.008Z,99.90
2023-03-22T02:20:43.850Z,99.90
2023-03-22T02:23:52.926Z,99.90
2023-03-22T02:27:04.983Z,99.90
2023-03-22T02:29:46.024Z,99.90
2023-03-22T02:32:52.310Z,99.90
2023-03-22T02:35:49.040Z,99.90
2023-03-22T02:39:04.434Z,99.90
2023-03-22T02:41:49.067Z,99.90
2023-03-22T02:44:29.004Z,99.90
2023-03-22T02:47:06.533Z,99.90
2023-03-22T02:49:46.014Z,99.90
2023-03-22T02:52:26.309Z,99.90
2023-03-22T02:55:08.104Z,99.90
2023-03-22T02:57:46.449Z,99.90
2023-03-22T03:00:21.053Z,99.90
2023-03-22T03:03:00.081Z,99.90
2023-03-22T03:05:35.675Z,99.90
2023-03-22T03:08:11.496Z,99.90
2023-03-22T03:10:49.322Z,99.90
2023-03-22T03:13:23.086Z,99.90
2023-03-22T03:15:59.840Z,99.90
2023-03-22T03:18:44.786Z,99.90
2023-03-22T03:21:32.719Z,99.90
2023-03-22T03:24:18.688Z,99.90
2023-03-22T03:27:01.241Z,99.90
2023-03-22T03:29:41.698Z,99.90
2023-03-22T03:32:20.576Z,99.90
2023-03-22T03:34:59.473Z,99.90
2023-03-22T03:37:37.327Z,99.90
2023-03-22T03:40:16.472Z,99.90
2023-03-22T03:42:54.199Z,99.90
2023-03-22T03:45:28.000Z,99.90
2023-03-22T03:48:07.393Z,99.90
2023-03-22T03:50:41.308Z,99.90
2023-03-22T03:53:17.620Z,99.90
2023-03-22T03:55:51.273Z,99.90
2023-03-22T03:58:26.603Z,99.90
2023-03-22T04:01:00.127Z,99.90
2023-03-22T04:03:33.886Z,99.90
2023-03-22T04:06:36.434Z,99.90
2023-03-22T04:09:16.249Z,99.90
2023-03-22T04:11:53.117Z,99.90
2023-03-22T04:14:28.520Z,99.90
2023-03-22T04:17:05.690Z,99.90
2023-03-22T04:19:39.165Z,99.90
2023-03-22T04:22:14.878Z,99.90
2023-03-22T04:24:50.616Z,99.90
2023-03-22T04:27:27.215Z,99.90
2023-03-22T04:30:11.602Z,99.90
2023-03-22T04:33:06.989Z,99.90
2023-03-22T04:36:11.041Z,99.90
2023-03-22T04:39:16.300Z,99.90
2023-03-22T04:41:58.111Z,99.90
2023-03-22T04:44:33.045Z,99.90
2023-03-22T04:47:08.031Z,99.90
2023-03-22T04:49:42.208Z,99.90
2023-03-22T04:52:16.215Z,99.90
2023-03-22T04:54:57.007Z,99.90
2023-03-22T04:57:30.551Z,99.90
2023-03-22T05:00:06.935Z,99.90
2023-03-22T05:02:41.946Z,99.90
2023-03-22T05:05:23.812Z,99.90
2023-03-22T05:07:58.741Z,99.90
2023-03-22T05:10:32.753Z,99.90
2023-03-22T05:13:06.296Z,99.90
2023-03-22T05:15:47.302Z,99.90
2023-03-22T05:18:26.337Z,99.90
2023-03-22T05:21:04.012Z,99.90
2023-03-22T05:23:37.522Z,99.90
2023-03-22T05:26:16.143Z,99.90
2023-03-22T05:28:50.064Z,99.90
2023-03-22T05:31:30.458Z,99.90
2023-03-22T05:34:10.705Z,99.90
2023-03-22T05:36:46.325Z,99.90
2023-03-22T05:39:34.308Z,99.90
2023-03-22T05:42:07.813Z,99.90
2023-03-22T05:44:42.462Z,99.90
2023-03-22T05:47:19.280Z,99.90
2023-03-22T05:50:25.325Z,99.90
2023-03-22T05:52:59.082Z,99.90
2023-03-22T05:55:53.143Z,99.90
2023-03-22T05:58:28.933Z,99.90
2023-03-22T06:01:08.082Z,99.90
2023-03-22T06:03:53.670Z,99.90
2023-03-22T06:06:42.679Z,99.90
2023-03-22T06:09:22.604Z,99.90
2023-03-22T06:11:59.844Z,99.90
2023-03-22T06:14:34.107Z,99.90
2023-03-22T06:17:15.540Z,99.90
2023-03-22T06:19:52.020Z,99.90
2023-03-22T06:22:30.558Z,99.90
2023-03-22T06:25:04.710Z,99.90
2023-03-22T06:27:46.234Z,99.90
2023-03-22T06:30:19.735Z,99.90
2023-03-22T06:33:16.055Z,99.90
2023-03-22T06:35:53.526Z,99.90
2023-03-22T06:38:36.520Z,99.90
2023-03-22T06:41:10.389Z,99.90
2023-03-22T06:43:43.908Z,99.90
2023-03-22T06:46:35.121Z,99.90
2023-03-22T06:49:16.867Z,99.90
2023-03-22T06:51:50.402Z,99.90
2023-03-22T06:54:25.417Z,99.90
2023-03-22T06:57:00.393Z,99.90
2023-03-22T06:59:33.883Z,99.90
2023-03-22T07:02:11.469Z,99.90
2023-03-22T07:04:47.394Z,99.90
2023-03-22T07:07:20.962Z,99.90
2023-03-22T07:09:57.048Z,99.90
2023-03-22T07:12:30.698Z,99.90
2023-03-22T07:15:07.557Z,99.90
2023-03-22T07:17:53.566Z,99.90
2023-03-22T07:20:27.370Z,99.90
2023-03-22T07:23:01.767Z,99.90
2023-03-22T07:25:40.953Z,99.90
2023-03-22T07:28:32.068Z,99.90
2023-03-22T07:31:10.029Z,99.90
2023-03-22T07:33:59.236Z,99.90
2023-03-22T07:36:35.314Z,99.90
2023-03-22T07:39:08.844Z,99.90
2023-03-22T07:41:48.374Z,99.90
2023-03-22T07:44:30.844Z,99.90
2023-03-22T07:47:40.384Z,99.90
2023-03-22T07:50:36.239Z,99.90
2023-03-22T07:53:13.308Z,99.90
2023-03-22T07:55:48.349Z,99.90
2023-03-22T07:58:23.266Z,99.90
2023-03-22T08:00:58.568Z,99.90
2023-03-22T08:03:50.832Z,99.90
2023-03-22T08:06:47.117Z,99.90
2023-03-22T08:09:20.725Z,99.90
2023-03-22T08:11:54.586Z,99.90
2023-03-22T08:14:36.363Z,99.90
2023-03-22T08:17:13.441Z,99.90
2023-03-22T08:19:47.250Z,99.90
2023-03-22T08:22:29.991Z,99.90
2023-03-22T08:25:40.971Z,99.90
2023-03-22T08:28:35.580Z,99.90
2023-03-22T08:31:30.197Z,99.90
2023-03-22T08:34:22.436Z,99.90
2023-03-22T08:37:14.802Z,99.90
2023-03-22T08:40:11.559Z,99.90
2023-03-22T08:43:10.580Z,99.90
2023-03-22T08:45:44.302Z,99.90
2023-03-22T08:48:23.866Z,99.90
2023-03-22T08:51:19.313Z,99.90
2023-03-22T08:54:15.931Z,99.90
2023-03-22T08:57:09.513Z,99.90
2023-03-22T08:59:56.763Z,99.90
2023-03-22T09:02:36.845Z,99.90
2023-03-22T09:05:13.588Z,99.90
2023-03-22T09:07:48.539Z,99.90
2023-03-22T09:10:31.376Z,99.90
2023-03-22T09:13:04.962Z,99.90
2023-03-22T09:15:38.790Z,99.90
2023-03-22T09:18:21.117Z,99.90
2023-03-22T09:20:56.151Z,99.90
2023-03-22T09:23:35.541Z,99.90
2023-03-22T09:26:11.145Z,99.90
2023-03-22T09:28:46.070Z,99.90
2023-03-22T09:31:20.869Z,99.90
2023-03-22T09:34:01.949Z,99.90
2023-03-22T09:36:37.391Z,99.90
2023-03-22T09:39:11.205Z,99.90
2023-03-22T09:41:49.763Z,99.90
2023-03-22T09:44:28.178Z,99.90
2023-03-22T09:47:05.374Z,99.90
2023-03-22T09:49:53.027Z,99.90
2023-03-22T09:52:29.190Z,99.90
2023-03-22T09:55:02.720Z,99.90
2023-03-22T09:57:39.028Z,99.90
2023-03-22T10:00:20.891Z,99.30
2023-03-22T10:03:01.936Z,99.90
2023-03-22T10:05:41.679Z,99.90
2023-03-22T10:08:34.296Z,95.70
2023-03-22T10:11:21.977Z,98.40
2023-03-22T10:14:02.862Z,99.90
2023-03-22T10:16:37.234Z,94.10
2023-03-22T10:19:20.493Z,94.90
2023-03-22T10:21:56.600Z,89.90
2023-03-22T10:24:34.263Z,92.70
2023-03-22T10:27:16.315Z,88.10
2023-03-22T10:29:52.937Z,90.20
2023-03-22T10:32:33.040Z,86.40
2023-03-22T10:35:07.146Z,87.10
2023-03-22T10:37:42.009Z,88.10
2023-03-22T10:40:21.511Z,84.10
2023-03-22T10:42:58.230Z,77.70
2023-03-22T10:45:34.907Z,81.10
2023-03-22T10:48:14.835Z,77.80
2023-03-22T10:50:49.423Z,76.40
2023-03-22T10:53:29.781Z,77.80
2023-03-22T10:56:05.850Z,72.30
2023-03-22T10:58:39.317Z,75.90
2023-03-22T11:01:15.048Z,74.70
2023-03-22T11:03:52.674Z,75.80
2023-03-22T11:06:27.702Z,76.20
2023-03-22T11:09:02.873Z,76.00
2023-03-22T11:11:46.554Z,73.60
2023-03-22T11:14:24.358Z,75.80
2023-03-22T11:17:00.676Z,72.20
2023-03-22T11:19:36.214Z,72.30
2023-03-22T11:22:27.886Z,73.10
2023-03-22T11:25:02.192Z,69.70
2023-03-22T11:27:37.700Z,71.50
2023-03-22T11:30:21.485Z,71.40
2023-03-22T11:33:18.591Z,72.70
2023-03-22T11:35:56.778Z,70.30
2023-03-22T11:38:36.664Z,72.80
2023-03-22T11:41:15.175Z,72.90
2023-03-22T11:43:54.334Z,72.00
2023-03-22T11:46:27.934Z,70.80
2023-03-22T11:49:05.925Z,73.00
2023-03-22T11:51:40.459Z,72.60
2023-03-22T11:54:20.937Z,71.80
2023-03-22T11:56:59.091Z,70.30
2023-03-22T11:59:39.957Z,71.50
2023-03-22T12:02:21.541Z,70.90
2023-03-22T12:05:01.946Z,71.00
2023-03-22T12:07:37.720Z,71.50
2023-03-22T12:10:18.026Z,72.50
2023-03-22T12:12:55.400Z,72.90
2023-03-22T12:15:34.213Z,72.80
2023-03-22T12:18:12.994Z,71.90
2023-03-22T12:20:53.273Z,73.50
2023-03-22T12:23:29.435Z,74.00
2023-03-22T12:26:06.522Z,74.50
2023-03-22T12:28:44.447Z,73.60
2023-03-22T12:31:22.639Z,75.00
2023-03-22T12:33:59.500Z,73.30
2023-03-22T12:36:36.975Z,72.50
2023-03-22T12:39:19.614Z,73.50
2023-03-22T12:41:56.956Z,73.40
2023-03-22T12:44:34.289Z,74.40
2023-03-22T12:47:19.011Z,74.60
2023-03-22T12:49:57.822Z,74.50
2023-03-22T12:52:45.285Z,74.50
2023-03-22T12:55:24.450Z,74.40
2023-03-22T12:57:58.320Z,74.20
2023-03-22T13:00:37.520Z,73.20
2023-03-22T13:03:24.635Z,75.70
2023-03-22T13:06:04.636Z,75.70
2023-03-22T13:09:13.190Z,75.20
2023-03-22T13:11:48.804Z,73.80
2023-03-22T13:15:00.947Z,75.00
2023-03-22T13:17:44.763Z,73.30
2023-03-22T13:20:29.021Z,73.40
2023-03-22T13:23:26.069Z,73.80
2023-03-22T13:26:06.761Z,73.40
2023-03-22T13:28:40.474Z,74.50
2023-03-22T13:31:32.228Z,74.30
2023-03-22T13:34:13.739Z,74.50
2023-03-22T13:36:54.275Z,76.00
2023-03-22T13:39:34.742Z,76.60
2023-03-22T13:42:18.350Z,76.30
2023-03-22T13:44:58.589Z,75.80
2023-03-22T13:47:35.987Z,76.10
2023-03-22T13:50:14.924Z,76.00
2023-03-22T13:52:59.866Z,76.30
2023-03-22T13:55:43.442Z,76.10
2023-03-22T13:58:37.272Z,76.40
2023-03-22T14:01:17.964Z,76.80
2023-03-22T14:03:52.499Z,76.20
2023-03-22T14:06:29.199Z,76.70
2023-03-22T14:09:14.974Z,77.20
2023-03-22T14:11:55.802Z,77.60
2023-03-22T14:14:33.554Z,77.00
2023-03-22T14:17:17.440Z,77.20
2023-03-22T14:19:52.624Z,77.70
